createdAt,value
2022-09-23T09:48:25.888Z,35.14
2022-09-23T09:49:26.827Z,35.35
2022-09-23T09:50:26.678Z,35.42
2022-09-23T09:51:26.816Z,35.50
2022-09-23T09:52:26.603Z,35.28
2022-09-23T09:53:26.740Z,35.53
2022-09-23T09:54:26.424Z,57.06
2022-09-23T09:55:48.051Z,36.44
2022-09-23T09:56:43.030Z,35.63
2022-09-23T09:57:43.116Z,35.32
2022-09-23T09:58:42.965Z,35.44
2022-09-23T09:59:43.029Z,35.04
2022-09-23T10:00:42.839Z,34.91
2022-09-23T10:01:42.993Z,35.04
2022-09-23T10:02:42.752Z,34.99
2022-09-23T10:03:42.888Z,34.97
2022-09-23T10:04:42.735Z,35.00
2022-09-23T10:05:42.805Z,34.85
2022-09-23T10:06:42.518Z,34.72
2022-09-23T10:07:42.672Z,34.53
2022-09-23T10:08:42.396Z,34.45
2022-09-23T10:09:42.443Z,34.50
2022-09-23T10:10:42.470Z,34.44
2022-09-23T10:11:42.171Z,34.44
2022-09-23T10:12:42.324Z,34.43
2022-09-23T10:13:42.015Z,34.43
2022-09-23T10:14:42.065Z,34.38
2022-09-23T10:15:44.733Z,34.38
2022-09-23T10:16:42.294Z,34.40
2022-09-23T10:17:41.692Z,34.61
2022-09-23T10:18:42.017Z,34.82
2022-09-23T10:19:41.538Z,34.73
2022-09-23T10:20:41.559Z,34.66
2022-09-23T10:21:41.345Z,34.62
2022-09-23T10:22:41.494Z,34.66
2022-09-23T10:23:41.169Z,34.72
2022-09-23T10:24:41.228Z,34.71
2022-09-23T10:25:40.996Z,34.71
2022-09-23T10:26:41.125Z,34.65
2022-09-23T10:27:40.822Z,34.62
2022-09-23T10:28:41.066Z,34.56
2022-09-23T10:29:40.650Z,34.59
2022-09-23T10:30:40.746Z,34.58
2022-09-23T10:31:40.490Z,34.56
2022-09-23T10:32:40.607Z,34.54
2022-09-23T10:33:40.335Z,34.55
2022-09-23T10:34:40.470Z,34.56
2022-09-23T10:35:40.154Z,34.52
2022-09-23T10:36:44.489Z,34.56
2022-09-23T10:37:39.993Z,34.52
2022-09-23T10:38:40.024Z,34.52
2022-09-23T10:39:39.818Z,34.51
2022-09-23T10:40:40.086Z,34.54
2022-09-23T10:41:39.648Z,34.54
2022-09-23T10:42:39.928Z,34.54
2022-09-23T10:43:39.468Z,34.55
2022-09-23T10:44:39.557Z,34.57
2022-09-23T10:45:41.198Z,34.57
2022-09-23T10:46:39.488Z,34.58
2022-09-23T10:47:39.123Z,34.60
2022-09-23T10:48:39.219Z,34.61
2022-09-23T10:49:38.971Z,34.61
2022-09-23T10:50:38.987Z,34.60
2022-09-23T10:51:38.778Z,34.62
2022-09-23T10:52:38.923Z,34.62
2022-09-23T10:53:38.628Z,34.62
2022-09-23T10:54:38.707Z,34.62
2022-09-23T10:55:38.442Z,34.64
2022-09-23T10:56:38.455Z,34.66
2022-09-23T10:57:38.266Z,34.64
2022-09-23T10:58:38.397Z,34.65
2022-09-23T10:59:38.108Z,34.64
2022-09-23T11:00:38.151Z,34.62
2022-09-23T11:01:37.956Z,34.64
2022-09-23T11:02:38.007Z,34.65
2022-09-23T11:03:37.748Z,34.66
2022-09-23T11:04:37.999Z,34.66
2022-09-23T11:05:37.563Z,34.67
2022-09-23T11:06:37.604Z,34.67
2022-09-23T11:07:37.523Z,34.85
2022-09-23T11:08:37.478Z,34.88
2022-09-23T11:09:37.206Z,34.89
2022-09-23T11:10:52.471Z,35.15
2022-09-23T11:11:37.016Z,35.17
2022-09-23T11:12:37.094Z,35.10
2022-09-23T11:13:36.823Z,35.02
2022-09-23T11:14:36.937Z,34.96
2022-09-23T11:15:36.658Z,34.92
2022-09-23T11:16:36.850Z,34.89
2022-09-23T11:17:36.516Z,34.88
2022-09-23T11:18:36.578Z,34.87
2022-09-23T11:19:36.318Z,34.86
2022-09-23T11:20:36.408Z,34.85
2022-09-23T11:21:36.220Z,34.86
2022-09-23T11:22:36.221Z,34.84
2022-09-23T11:23:35.955Z,34.84
2022-09-23T11:24:36.041Z,34.84
2022-09-23T11:25:35.776Z,34.84
2022-09-23T11:26:35.822Z,34.82
2022-09-23T11:27:35.804Z,34.84
2022-09-23T11:28:35.571Z,34.85
2022-09-23T11:29:35.544Z,34.82
2022-09-23T11:30:35.362Z,34.84
2022-09-23T11:31:35.431Z,34.85
2022-09-23T11:32:35.163Z,34.85
2022-09-23T11:33:35.338Z,34.85
2022-09-23T11:34:34.977Z,34.86
2022-09-23T11:35:35.019Z,34.87
2022-09-23T11:36:34.803Z,34.86
2022-09-23T11:37:34.889Z,34.85
2022-09-23T11:38:34.616Z,34.87
2022-09-23T11:39:34.702Z,34.86
2022-09-23T11:40:34.582Z,34.87
2022-09-23T11:41:34.544Z,34.86
2022-09-23T11:42:34.273Z,34.86
2022-09-23T11:43:34.305Z,34.87
2022-09-23T11:44:34.076Z,34.89
2022-09-23T11:45:34.276Z,34.89
2022-09-23T11:46:33.891Z,34.89
2022-09-23T11:47:37.716Z,34.90
2022-09-23T11:48:33.704Z,34.92
2022-09-23T11:49:33.871Z,34.92
2022-09-23T11:50:33.514Z,35.23
2022-09-23T11:51:33.600Z,36.28
2022-09-23T11:52:33.320Z,36.85
2022-09-23T11:53:33.422Z,36.91
2022-09-23T11:54:33.142Z,36.95
2022-09-23T11:55:33.223Z,37.05
2022-09-23T11:56:35.785Z,36.61
2022-09-23T11:57:45.204Z,36.83
2022-09-23T11:58:32.858Z,36.44
2022-09-23T11:59:40.290Z,36.15
2022-09-23T12:00:32.604Z,36.01
2022-09-23T12:01:37.571Z,35.98
2022-09-23T12:02:32.553Z,36.04
2022-09-23T12:03:43.398Z,36.09
2022-09-23T12:04:32.397Z,35.86
2022-09-23T12:05:32.438Z,35.83
2022-09-23T12:06:32.045Z,35.81
2022-09-23T12:07:32.121Z,35.69
2022-09-23T12:08:31.849Z,35.74
2022-09-23T12:09:56.683Z,36.04
2022-09-23T12:10:31.642Z,35.84
2022-09-23T12:11:32.677Z,36.01
2022-09-23T12:12:31.580Z,36.63
2022-09-23T12:13:31.337Z,36.10
2022-09-23T12:14:31.427Z,35.95
2022-09-23T12:15:31.183Z,35.61
2022-09-23T12:16:32.177Z,35.69
2022-09-23T12:17:31.103Z,35.87
2022-09-23T12:18:30.841Z,35.60
2022-09-23T12:19:30.856Z,35.59
2022-09-23T12:20:30.640Z,35.39
2022-09-23T12:21:49.762Z,35.54
2022-09-23T12:22:30.434Z,35.31
2022-09-23T12:23:30.456Z,35.42
2022-09-23T12:24:30.256Z,35.39
2022-09-23T12:25:30.437Z,35.37
2022-09-23T12:26:30.030Z,35.36
2022-09-23T12:27:30.131Z,35.35
2022-09-23T12:28:29.844Z,35.35
2022-09-23T12:29:29.923Z,35.36
2022-09-23T12:30:29.696Z,35.34
2022-09-23T12:31:29.739Z,35.31
2022-09-23T12:32:29.429Z,35.26
2022-09-23T12:33:30.467Z,35.22
2022-09-23T12:34:29.443Z,35.29
2022-09-23T12:35:29.114Z,35.18
2022-09-23T12:36:29.150Z,35.40
2022-09-23T12:37:28.911Z,35.25
2022-09-23T12:38:28.949Z,35.46
2022-09-23T12:39:29.432Z,36.08
2022-09-23T12:40:28.673Z,35.53
2022-09-23T12:41:28.668Z,35.40
2022-09-23T12:42:31.116Z,35.24
2022-09-23T12:43:28.407Z,35.43
2022-09-23T12:44:28.158Z,35.22
2022-09-23T12:45:28.338Z,35.29
2022-09-23T12:46:27.946Z,35.43
2022-09-23T12:47:28.034Z,35.05
2022-09-23T12:48:27.737Z,35.02
2022-09-23T12:49:28.723Z,35.15
2022-09-23T12:50:27.722Z,35.15
2022-09-23T12:51:27.470Z,35.37
2022-09-23T12:52:27.435Z,35.06
2022-09-23T12:53:27.193Z,35.14
2022-09-23T12:54:27.261Z,34.91
2022-09-23T12:55:26.980Z,34.80
2022-09-23T12:56:27.048Z,34.91
2022-09-23T12:57:26.794Z,35.07
2022-09-23T12:58:26.837Z,35.21
2022-09-23T12:59:26.524Z,35.28
2022-09-23T13:00:29.840Z,35.11
2022-09-23T13:01:26.548Z,34.91
2022-09-23T13:02:26.424Z,34.93
2022-09-23T13:03:26.102Z,35.46
2022-09-23T13:04:26.069Z,35.01
2022-09-23T13:05:25.829Z,34.93
2022-09-23T13:06:25.931Z,34.89
2022-09-23T13:07:25.595Z,34.98
2022-09-23T13:08:25.657Z,35.06
2022-09-23T13:09:25.415Z,35.15
2022-09-23T13:10:25.430Z,35.29
2022-09-23T13:11:25.129Z,35.29
2022-09-23T13:12:25.137Z,35.50
2022-09-23T13:13:24.893Z,35.42
2022-09-23T13:14:27.576Z,36.11
2022-09-23T13:15:24.703Z,35.86
2022-09-23T13:16:24.779Z,35.63
2022-09-23T13:17:24.440Z,35.59
2022-09-23T13:18:24.494Z,36.27
2022-09-23T13:19:24.210Z,36.32
2022-09-23T13:20:24.211Z,36.32
2022-09-23T13:21:24.251Z,35.97
2022-09-23T13:22:23.857Z,36.06
2022-09-23T13:23:23.900Z,36.14
2022-09-23T13:24:23.623Z,36.24
2022-09-23T13:25:23.662Z,35.45
2022-09-23T13:26:23.374Z,35.40
2022-09-23T13:27:24.010Z,34.98
2022-09-23T13:28:23.125Z,34.97
2022-09-23T13:29:23.144Z,35.68
2022-09-23T13:30:26.215Z,35.37
2022-09-23T13:31:22.989Z,35.19
2022-09-23T13:32:22.650Z,35.06
2022-09-23T13:33:22.730Z,35.07
2022-09-23T13:34:22.407Z,35.11
2022-09-23T13:35:22.426Z,34.96
2022-09-23T13:36:22.212Z,34.95
2022-09-23T13:37:23.006Z,35.31
2022-09-23T13:38:21.937Z,35.53
2022-09-23T13:39:22.036Z,35.76
2022-09-23T13:40:21.827Z,35.60
2022-09-23T13:41:21.748Z,35.46
2022-09-23T13:42:21.451Z,35.46
2022-09-23T13:43:21.457Z,35.54
2022-09-23T13:44:21.207Z,35.61
2022-09-23T13:45:21.307Z,35.50
2022-09-23T13:46:21.154Z,35.40
2022-09-23T13:47:21.071Z,35.32
2022-09-23T13:48:20.722Z,35.31
2022-09-23T13:49:20.744Z,35.39
2022-09-23T13:50:20.484Z,35.22
2022-09-23T13:51:20.651Z,35.32
2022-09-23T13:52:20.248Z,35.26
2022-09-23T13:53:20.287Z,35.21
2022-09-23T13:54:20.016Z,35.08
2022-09-23T13:55:20.033Z,35.05
2022-09-23T13:56:19.782Z,35.06
2022-09-23T13:57:19.890Z,35.49
2022-09-23T13:58:19.568Z,35.30
2022-09-23T13:59:19.585Z,35.08
2022-09-23T14:00:19.307Z,35.04
2022-09-23T14:01:19.370Z,34.98
2022-09-23T14:02:19.127Z,34.96
2022-09-23T14:03:19.192Z,34.95
2022-09-23T14:04:18.850Z,34.95
2022-09-23T14:05:18.874Z,35.01
2022-09-23T14:06:18.589Z,35.33
2022-09-23T14:07:18.712Z,35.40
2022-09-23T14:08:18.354Z,35.71
2022-09-23T14:09:18.462Z,35.58
2022-09-23T14:10:18.105Z,35.34
2022-09-23T14:11:18.104Z,35.45
2022-09-23T14:12:17.866Z,35.23
2022-09-23T14:13:21.311Z,35.10
2022-09-23T14:14:17.615Z,34.95
2022-09-23T14:15:17.671Z,35.03
2022-09-23T14:16:17.420Z,34.94
2022-09-23T14:17:17.456Z,34.93
2022-09-23T14:18:17.121Z,34.88
2022-09-23T14:19:17.139Z,34.87
2022-09-23T14:20:16.887Z,34.83
2022-09-23T14:21:17.007Z,34.87
2022-09-23T14:22:16.651Z,35.03
2022-09-23T14:23:16.863Z,34.94
2022-09-23T14:24:16.420Z,34.90
2022-09-23T14:25:16.431Z,34.90
2022-09-23T14:26:16.269Z,35.05
2022-09-23T14:27:16.298Z,35.12
2022-09-23T14:28:15.935Z,35.26
2022-09-23T14:29:15.942Z,35.09
2022-09-23T14:30:15.700Z,34.91
2022-09-23T14:31:15.778Z,35.01
2022-09-23T14:32:15.454Z,34.96
2022-09-23T14:33:15.577Z,34.86
2022-09-23T14:34:15.213Z,34.78
2022-09-23T14:35:15.219Z,35.07
2022-09-23T14:36:14.955Z,34.94
2022-09-23T14:37:15.012Z,35.05
2022-09-23T14:38:14.707Z,34.94
2022-09-23T14:39:14.816Z,34.90
2022-09-23T14:40:14.641Z,34.90
2022-09-23T14:41:14.562Z,34.87
2022-09-23T14:42:14.220Z,34.93
2022-09-23T14:43:14.277Z,34.82
2022-09-23T14:44:13.971Z,34.78
2022-09-23T14:45:14.041Z,34.88
2022-09-23T14:46:13.820Z,35.02
2022-09-23T14:47:13.986Z,35.34
2022-09-23T14:48:13.478Z,35.17
2022-09-23T14:49:13.502Z,35.04
2022-09-23T14:50:13.233Z,35.11
2022-09-23T14:51:17.084Z,34.95
2022-09-23T14:52:12.981Z,34.89
2022-09-23T14:53:13.035Z,35.04
2022-09-23T14:54:12.724Z,34.77
2022-09-23T14:55:12.779Z,34.72
2022-09-23T14:56:12.478Z,34.73
2022-09-23T14:57:12.589Z,34.70
2022-09-23T14:58:12.233Z,34.68
2022-09-23T14:59:12.309Z,34.68
2022-09-23T15:00:11.983Z,34.64
2022-09-23T15:01:12.171Z,34.61
2022-09-23T15:02:11.757Z,34.61
2022-09-23T15:03:11.949Z,34.57
2022-09-23T15:04:11.511Z,34.58
2022-09-23T15:05:11.535Z,34.59
2022-09-23T15:06:11.295Z,34.59
2022-09-23T15:07:11.330Z,34.59
2022-09-23T15:08:11.079Z,34.57
2022-09-23T15:09:11.128Z,34.58
2022-09-23T15:10:10.832Z,34.61
2022-09-23T15:11:10.905Z,34.60
2022-09-23T15:12:10.614Z,34.61
2022-09-23T15:13:10.661Z,34.63
2022-09-23T15:14:36.185Z,34.62
2022-09-23T15:15:10.567Z,34.61
2022-09-23T15:16:10.183Z,34.63
2022-09-23T15:17:10.174Z,34.61
2022-09-23T15:18:09.926Z,34.59
2022-09-23T15:19:09.984Z,34.60
2022-09-23T15:20:09.691Z,34.62
2022-09-23T15:21:09.796Z,34.61
2022-09-23T15:22:09.457Z,34.61
2022-09-23T15:23:09.464Z,34.62
2022-09-23T15:24:09.219Z,34.62
2022-09-23T15:25:09.292Z,34.62
2022-09-23T15:26:08.996Z,34.62
2022-09-23T15:27:09.102Z,34.64
2022-09-23T15:28:08.779Z,34.64
2022-09-23T15:29:08.777Z,34.67
2022-09-23T15:30:12.601Z,34.69
2022-09-23T15:31:08.761Z,34.69
2022-09-23T15:32:08.319Z,34.68
2022-09-23T15:33:08.385Z,34.70
2022-09-23T15:34:08.126Z,34.68
2022-09-23T15:35:08.173Z,34.68
2022-09-23T15:36:07.887Z,34.68
2022-09-23T15:37:08.010Z,34.67
2022-09-23T15:38:07.772Z,34.65
2022-09-23T15:39:07.754Z,34.64
2022-09-23T15:40:07.481Z,34.63
2022-09-23T15:41:07.508Z,34.61
2022-09-23T15:42:07.217Z,34.61
2022-09-23T15:43:07.236Z,34.62
2022-09-23T15:44:07.130Z,34.62
2022-09-23T15:45:07.138Z,34.61
2022-09-23T15:46:06.881Z,34.61
2022-09-23T15:47:06.847Z,34.62
2022-09-23T15:48:06.562Z,34.61
2022-09-23T15:49:06.691Z,34.62
2022-09-23T15:50:06.394Z,34.66
2022-09-23T15:51:06.466Z,34.66
2022-09-23T15:52:06.134Z,34.66
2022-09-23T15:53:06.223Z,34.64
2022-09-23T15:54:05.933Z,34.63
2022-09-23T15:55:05.995Z,34.62
2022-09-23T15:56:05.780Z,34.62
2022-09-23T15:57:05.775Z,34.60
2022-09-23T15:58:05.503Z,34.61
2022-09-23T15:59:05.649Z,34.62
2022-09-23T16:00:05.295Z,34.61
2022-09-23T16:01:05.478Z,34.60
2022-09-23T16:02:05.134Z,34.62
2022-09-23T16:03:05.369Z,34.62
2022-09-23T16:04:04.884Z,34.61
2022-09-23T16:05:04.920Z,34.62
2022-09-23T16:06:04.775Z,34.63
2022-09-23T16:07:04.789Z,34.63
2022-09-23T16:08:08.725Z,34.63
2022-09-23T16:09:04.528Z,34.64
2022-09-23T16:10:04.228Z,34.62
2022-09-23T16:11:04.311Z,34.62
2022-09-23T16:12:04.026Z,34.63
2022-09-23T16:13:04.102Z,34.63
2022-09-23T16:14:03.808Z,34.62
2022-09-23T16:15:03.950Z,34.62
2022-09-23T16:16:03.699Z,34.63
2022-09-23T16:17:03.674Z,34.60
2022-09-23T16:18:03.400Z,34.59
2022-09-23T16:19:03.478Z,34.58
2022-09-23T16:20:03.196Z,34.60
2022-09-23T16:21:03.395Z,34.58
2022-09-23T16:22:02.983Z,34.59
2022-09-23T16:23:03.024Z,36.18
2022-09-23T16:24:02.778Z,35.01
2022-09-23T16:25:02.804Z,35.92
2022-09-23T16:26:02.560Z,35.96
2022-09-23T16:27:02.727Z,35.54
2022-09-23T16:28:02.352Z,35.64
2022-09-23T16:29:02.409Z,35.79
2022-09-23T16:30:02.265Z,36.05
2022-09-23T16:31:02.352Z,35.65
2022-09-23T16:32:01.999Z,35.36
2022-09-23T16:33:02.089Z,35.44
2022-09-23T16:34:01.767Z,35.33
2022-09-23T16:35:01.881Z,35.25
2022-09-23T16:36:01.590Z,35.37
2022-09-23T16:37:01.689Z,35.73
2022-09-23T16:38:01.396Z,35.53
2022-09-23T16:39:01.592Z,35.58
2022-09-23T16:40:01.216Z,35.62
2022-09-23T16:41:01.482Z,35.65
2022-09-23T16:42:01.010Z,35.49
2022-09-23T16:43:01.036Z,35.38
2022-09-23T16:44:00.830Z,35.41
2022-09-23T16:45:00.928Z,35.43
2022-09-23T16:46:00.748Z,35.45
2022-09-23T16:47:00.614Z,35.45
2022-09-23T16:48:00.372Z,35.44
2022-09-23T16:49:00.467Z,35.42
2022-09-23T16:50:00.237Z,35.48
2022-09-23T16:51:00.255Z,35.48
2022-09-23T16:51:59.932Z,35.50
2022-09-23T16:52:59.946Z,35.49
2022-09-23T16:53:59.723Z,35.40
2022-09-23T16:54:59.793Z,35.58
2022-09-23T16:55:59.508Z,35.43
2022-09-23T16:56:59.575Z,35.36
2022-09-23T16:57:59.267Z,35.29
2022-09-23T16:58:59.359Z,35.26
2022-09-23T16:59:59.047Z,35.26
2022-09-23T17:00:59.150Z,35.26
2022-09-23T17:01:58.918Z,35.31
2022-09-23T17:02:58.982Z,35.28
2022-09-23T17:03:58.593Z,35.68
2022-09-23T17:04:58.608Z,35.48
2022-09-23T17:05:58.360Z,35.28
2022-09-23T17:06:58.417Z,35.16
2022-09-23T17:07:58.123Z,35.09
2022-09-23T17:08:58.336Z,34.96
2022-09-23T17:09:57.896Z,34.85
2022-09-23T17:10:58.033Z,34.91
2022-09-23T17:11:57.669Z,34.78
2022-09-23T17:12:57.729Z,34.75
2022-09-23T17:13:57.410Z,34.63
2022-09-23T17:14:57.475Z,34.70
2022-09-23T17:15:57.222Z,34.53
2022-09-23T17:16:57.227Z,34.44
2022-09-23T17:17:56.934Z,34.42
2022-09-23T17:18:56.994Z,34.33
2022-09-23T17:19:56.682Z,34.35
2022-09-23T17:20:56.794Z,34.23
2022-09-23T17:21:56.445Z,34.16
2022-09-23T17:22:56.528Z,34.31
2022-09-23T17:23:56.206Z,34.26
2022-09-23T17:24:56.329Z,34.18
2022-09-23T17:25:55.953Z,34.17
2022-09-23T17:26:56.077Z,34.14
2022-09-23T17:27:55.713Z,34.26
2022-09-23T17:28:55.722Z,34.22
2022-09-23T17:29:55.491Z,34.09
2022-09-23T17:30:55.513Z,34.01
2022-09-23T17:31:55.242Z,34.97
2022-09-23T17:32:55.290Z,34.11
2022-09-23T17:33:54.948Z,34.77
2022-09-23T17:34:54.946Z,34.06
2022-09-23T17:35:54.693Z,34.18
2022-09-23T17:36:54.765Z,34.37
2022-09-23T17:37:54.452Z,34.14
2022-09-23T17:38:54.519Z,34.02
2022-09-23T17:39:54.175Z,34.36
2022-09-23T17:40:54.213Z,34.32
2022-09-23T17:41:53.926Z,34.06
2022-09-23T17:42:53.913Z,34.30
2022-09-23T17:43:53.653Z,34.54
2022-09-23T17:44:53.737Z,34.25
2022-09-23T17:45:53.464Z,34.26
2022-09-23T17:46:53.394Z,34.35
2022-09-23T17:47:53.124Z,35.67
2022-09-23T17:48:53.229Z,35.56
2022-09-23T17:49:52.852Z,35.06
2022-09-23T17:50:53.193Z,34.86
2022-09-23T17:51:52.585Z,34.87
2022-09-23T17:52:52.579Z,34.85
2022-09-23T17:53:52.332Z,34.78
2022-09-23T17:54:52.374Z,34.68
2022-09-23T17:55:52.036Z,34.53
2022-09-23T17:56:52.135Z,34.40
2022-09-23T17:57:51.811Z,34.30
2022-09-23T17:58:51.751Z,34.16
2022-09-23T17:59:51.490Z,33.99
2022-09-23T18:00:51.639Z,33.88
2022-09-23T18:01:51.285Z,33.76
2022-09-23T18:02:51.418Z,33.63
2022-09-23T18:03:50.935Z,33.55
2022-09-23T18:04:50.928Z,33.45
2022-09-23T18:05:50.665Z,33.37
2022-09-23T18:06:50.899Z,33.26
2022-09-23T18:07:50.399Z,33.17
2022-09-23T18:08:50.444Z,33.11
2022-09-23T18:09:50.112Z,33.07
2022-09-23T18:10:50.200Z,33.01
2022-09-23T18:11:49.822Z,32.94
2022-09-23T18:12:49.797Z,32.87
2022-09-23T18:13:49.542Z,32.82
2022-09-23T18:14:49.681Z,32.76
2022-09-23T18:15:49.252Z,32.71
2022-09-23T18:16:49.289Z,32.66
2022-09-23T18:17:48.965Z,32.59
2022-09-23T18:18:48.989Z,32.54
2022-09-23T18:19:48.684Z,32.49
2022-09-23T18:20:48.792Z,32.48
2022-09-23T18:21:48.412Z,32.42
2022-09-23T18:22:48.427Z,32.39
2022-09-23T18:23:48.093Z,32.36
2022-09-23T18:24:48.127Z,32.33
2022-09-23T18:25:47.803Z,32.29
2022-09-23T18:26:47.842Z,32.29
2022-09-23T18:27:47.515Z,32.27
2022-09-23T18:28:47.542Z,32.25
2022-09-23T18:29:47.238Z,32.22
2022-09-23T18:30:47.263Z,32.23
2022-09-23T18:31:47.075Z,32.19
2022-09-23T18:32:46.928Z,32.19
2022-09-23T18:33:46.626Z,32.14
2022-09-23T18:34:46.701Z,32.07
2022-09-23T18:35:46.332Z,32.00
2022-09-23T18:36:46.302Z,32.03
2022-09-23T18:37:46.014Z,32.02
2022-09-23T18:38:46.135Z,31.99
2022-09-23T18:39:45.709Z,32.00
2022-09-23T18:40:45.733Z,31.99
2022-09-23T18:41:45.402Z,31.99
2022-09-23T18:42:45.481Z,31.98
2022-09-23T18:43:48.368Z,31.95
2022-09-23T18:44:45.164Z,31.93
2022-09-23T18:45:44.860Z,31.87
2022-09-23T18:46:44.876Z,31.82
2022-09-23T18:47:44.485Z,31.79
2022-09-23T18:48:44.570Z,31.78
2022-09-23T18:49:44.178Z,31.74
2022-09-23T18:50:44.271Z,31.71
2022-09-23T18:51:43.862Z,31.69
2022-09-23T18:52:43.956Z,31.67
2022-09-23T18:53:43.553Z,31.64
2022-09-23T18:54:43.630Z,31.60
2022-09-23T18:55:43.236Z,31.61
2022-09-23T18:56:43.264Z,31.57
2022-09-23T18:57:42.926Z,31.55
2022-09-23T18:58:43.003Z,31.53
2022-09-23T18:59:42.598Z,31.51
2022-09-23T19:00:42.784Z,31.49
2022-09-23T19:01:42.438Z,31.44
2022-09-23T19:02:42.423Z,31.41
2022-09-23T19:03:41.947Z,31.39
2022-09-23T19:04:41.913Z,31.37
2022-09-23T19:05:41.625Z,31.34
2022-09-23T19:06:41.600Z,31.32
2022-09-23T19:07:41.295Z,31.34
2022-09-23T19:08:41.516Z,31.41
2022-09-23T19:09:40.982Z,31.41
2022-09-23T19:10:41.068Z,31.39
2022-09-23T19:11:40.662Z,31.33
2022-09-23T19:12:40.630Z,31.84
2022-09-23T19:13:40.335Z,31.56
2022-09-23T19:14:40.433Z,31.65
2022-09-23T19:15:40.011Z,31.51
2022-09-23T19:16:40.236Z,31.39
2022-09-23T19:17:39.680Z,31.33
2022-09-23T19:18:39.632Z,31.30
2022-09-23T19:19:39.353Z,31.22
2022-09-23T19:20:39.469Z,31.29
2022-09-23T19:21:39.018Z,31.24
2022-09-23T19:22:39.227Z,31.17
2022-09-23T19:23:38.684Z,31.13
2022-09-23T19:24:38.641Z,31.12
2022-09-23T19:25:38.353Z,31.09
2022-09-23T19:26:38.534Z,31.08
2022-09-23T19:27:38.024Z,31.06
2022-09-23T19:28:38.117Z,31.05
2022-09-23T19:29:37.730Z,31.02
2022-09-23T19:30:37.664Z,31.02
2022-09-23T19:31:37.398Z,30.98
2022-09-23T19:32:37.528Z,30.97
2022-09-23T19:33:37.492Z,30.93
2022-09-23T19:34:36.872Z,30.90
2022-09-23T19:35:36.902Z,30.90
2022-09-23T19:36:36.544Z,30.91
2022-09-23T19:37:36.561Z,30.88
2022-09-23T19:38:36.438Z,30.87
2022-09-23T19:39:36.052Z,30.87
2022-09-23T19:40:36.202Z,30.85
2022-09-23T19:41:35.738Z,30.84
2022-09-23T19:42:35.684Z,30.81
2022-09-23T19:43:35.379Z,30.81
2022-09-23T19:44:35.617Z,30.81
2022-09-23T19:45:35.056Z,30.81
2022-09-23T19:46:35.060Z,30.78
2022-09-23T19:47:34.706Z,30.77
2022-09-23T19:48:34.713Z,30.75
2022-09-23T19:49:34.385Z,30.75
2022-09-23T19:50:34.475Z,30.75
2022-09-23T19:51:34.047Z,30.72
2022-09-23T19:52:34.028Z,30.72
2022-09-23T19:53:33.726Z,30.70
2022-09-23T19:54:33.778Z,30.67
2022-09-23T19:55:33.409Z,30.68
2022-09-23T19:56:33.459Z,30.66
2022-09-23T19:57:33.075Z,30.65
2022-09-23T19:58:33.150Z,30.67
2022-09-23T19:59:32.739Z,30.69
2022-09-23T20:00:32.732Z,30.74
2022-09-23T20:01:32.403Z,30.75
2022-09-23T20:02:32.612Z,30.82
2022-09-23T20:03:32.066Z,30.85
2022-09-23T20:04:32.079Z,30.88
2022-09-23T20:05:31.742Z,30.89
2022-09-23T20:06:31.705Z,30.91
2022-09-23T20:07:31.421Z,30.93
2022-09-23T20:08:31.556Z,30.97
2022-09-23T20:09:31.095Z,31.01
2022-09-23T20:10:31.162Z,31.05
2022-09-23T20:11:30.766Z,31.01
2022-09-23T20:12:30.827Z,30.98
2022-09-23T20:13:30.439Z,30.95
2022-09-23T20:14:30.506Z,30.96
2022-09-23T20:15:30.102Z,30.92
2022-09-23T20:16:30.306Z,30.90
2022-09-23T20:17:29.780Z,30.96
2022-09-23T20:18:29.842Z,30.98
2022-09-23T20:19:29.415Z,30.95
2022-09-23T20:20:29.468Z,30.99
2022-09-23T20:21:29.170Z,30.96
2022-09-23T20:22:33.109Z,30.99
2022-09-23T20:23:28.714Z,30.96
2022-09-23T20:24:28.774Z,30.91
2022-09-23T20:25:28.384Z,30.87
2022-09-23T20:26:28.428Z,30.82
2022-09-23T20:27:28.021Z,30.81
2022-09-23T20:28:28.091Z,30.77
2022-09-23T20:29:27.674Z,30.77
2022-09-23T20:30:27.733Z,30.76
2022-09-23T20:31:27.410Z,30.76
2022-09-23T20:32:27.427Z,30.79
2022-09-23T20:33:27.010Z,30.77
2022-09-23T20:34:27.259Z,30.78
2022-09-23T20:35:26.657Z,30.78
2022-09-23T20:36:26.603Z,30.79
2022-09-23T20:37:26.313Z,30.75
2022-09-23T20:38:26.456Z,30.74
2022-09-23T20:39:25.981Z,30.71
2022-09-23T20:40:26.095Z,30.67
2022-09-23T20:41:25.657Z,30.66
2022-09-23T20:42:25.587Z,30.65
2022-09-23T20:43:25.298Z,30.68
2022-09-23T20:44:25.362Z,30.70
2022-09-23T20:45:24.962Z,30.66
2022-09-23T20:46:25.027Z,30.65
2022-09-23T20:47:24.615Z,30.64
2022-09-23T20:48:24.578Z,30.65
2022-09-23T20:49:24.291Z,30.63
2022-09-23T20:50:24.692Z,30.63
2022-09-23T20:51:23.947Z,30.61
2022-09-23T20:52:23.904Z,30.61
2022-09-23T20:53:23.602Z,30.61
2022-09-23T20:54:23.659Z,30.62
2022-09-23T20:55:23.268Z,30.62
2022-09-23T20:56:23.298Z,30.65
2022-09-23T20:57:22.926Z,30.66
2022-09-23T20:58:22.969Z,30.63
2022-09-23T20:59:22.591Z,30.63
2022-09-23T21:00:22.643Z,30.63
2022-09-23T21:01:22.412Z,30.64
2022-09-23T21:02:22.403Z,30.69
2022-09-23T21:03:21.915Z,30.79
2022-09-23T21:04:21.950Z,30.91
2022-09-23T21:05:21.575Z,30.85
2022-09-23T21:06:21.635Z,30.79
2022-09-23T21:07:21.237Z,30.84
2022-09-23T21:08:21.315Z,30.82
2022-09-23T21:09:20.902Z,30.86
2022-09-23T21:10:21.070Z,30.85
2022-09-23T21:11:20.566Z,30.85
2022-09-23T21:12:20.513Z,30.88
2022-09-23T21:13:20.233Z,30.87
2022-09-23T21:14:20.394Z,30.90
2022-09-23T21:15:19.897Z,30.89
2022-09-23T21:16:20.062Z,30.89
2022-09-23T21:17:19.574Z,30.91
2022-09-23T21:18:22.558Z,30.97
2022-09-23T21:19:19.237Z,30.89
2022-09-23T21:20:19.338Z,30.88
2022-09-23T21:21:18.913Z,30.90
2022-09-23T21:22:18.827Z,30.95
2022-09-23T21:23:21.177Z,30.97
2022-09-23T21:24:45.660Z,30.93
2022-09-23T21:25:29.348Z,30.90
2022-09-23T21:26:18.060Z,30.90
2022-09-23T21:27:18.133Z,30.90
2022-09-23T21:28:17.719Z,30.90
2022-09-23T21:29:17.687Z,30.91
2022-09-23T21:30:17.383Z,30.86
2022-09-23T21:31:17.717Z,30.92
2022-09-23T21:32:17.051Z,30.86
2022-09-23T21:33:17.018Z,30.91
2022-09-23T21:34:16.721Z,30.90
2022-09-23T21:35:16.922Z,31.00
2022-09-23T21:36:16.377Z,31.01
2022-09-23T21:37:16.486Z,30.99
2022-09-23T21:38:16.035Z,30.96
2022-09-23T21:39:16.093Z,31.01
2022-09-23T21:40:15.722Z,30.96
2022-09-23T21:41:15.762Z,31.00
2022-09-23T21:42:15.359Z,30.97
2022-09-23T21:43:15.430Z,30.93
2022-09-23T21:44:15.022Z,30.94
2022-09-23T21:45:15.078Z,30.92
2022-09-23T21:46:14.804Z,30.95
2022-09-23T21:47:14.888Z,30.94
2022-09-23T21:48:14.355Z,30.94
2022-09-23T21:49:14.461Z,30.97
2022-09-23T21:50:14.021Z,30.97
2022-09-23T21:51:14.048Z,30.94
2022-09-23T21:52:13.686Z,30.93
2022-09-23T21:53:13.747Z,30.92
2022-09-23T21:54:13.364Z,30.95
2022-09-23T21:55:13.488Z,30.95
2022-09-23T21:56:16.793Z,30.94
2022-09-23T21:57:13.005Z,30.96
2022-09-23T21:58:12.695Z,30.99
2022-09-23T21:59:12.712Z,30.93
2022-09-23T22:00:12.370Z,30.92
2022-09-23T22:01:12.634Z,30.91
2022-09-23T22:02:12.015Z,30.86
2022-09-23T22:03:12.028Z,30.89
2022-09-23T22:04:11.995Z,30.86
2022-09-23T22:05:11.766Z,30.86
2022-09-23T22:06:11.382Z,30.84
2022-09-23T22:07:11.611Z,30.85
2022-09-23T22:08:11.019Z,30.81
2022-09-23T22:09:11.018Z,30.83
2022-09-23T22:10:10.688Z,30.84
2022-09-23T22:11:10.742Z,30.86
2022-09-23T22:12:10.349Z,30.83
2022-09-23T22:13:12.963Z,30.82
2022-09-23T22:14:10.027Z,30.85
2022-09-23T22:15:10.021Z,30.83
2022-09-23T22:16:09.785Z,30.82
2022-09-23T22:17:09.757Z,30.84
2022-09-23T22:18:09.342Z,30.83
2022-09-23T22:19:09.365Z,30.83
2022-09-23T22:20:09.009Z,30.79
2022-09-23T22:21:09.008Z,30.77
2022-09-23T22:22:08.672Z,30.77
2022-09-23T22:23:08.627Z,30.75
2022-09-23T22:24:08.446Z,30.75
2022-09-23T22:25:08.442Z,30.75
2022-09-23T22:26:07.987Z,30.74
2022-09-23T22:27:07.956Z,30.74
2022-09-23T22:28:07.660Z,30.75
2022-09-23T22:29:07.666Z,30.73
2022-09-23T22:30:07.325Z,30.75
2022-09-23T22:31:07.486Z,30.74
2022-09-23T22:32:06.980Z,30.70
2022-09-23T22:33:06.940Z,30.75
2022-09-23T22:34:06.666Z,30.78
2022-09-23T22:35:06.640Z,30.75
2022-09-23T22:36:06.309Z,30.71
2022-09-23T22:37:06.382Z,30.70
2022-09-23T22:38:05.963Z,30.70
2022-09-23T22:39:05.975Z,30.70